Time;durP1;ratioP1;P1;durP2;ratioP2;P2;SDS_P1;SDS_P2;PMS_P1;PMS_P2;Temp;Humidity;BMP_temperature;BMP_pressure;BME280_temperature;BME280_humidity;BME280_pressure;Samples;Min_cycle;Max_cycle;Signal;HPM_P1;HPM_P2
2022/02/26 00:01:42;;;;;;;13.85;4.70;;;2.20;99.90;;;;;;5074402;28;20024;-79
2022/02/26 00:04:08;;;;;;;13.15;5.03;;;2.20;99.90;;;;;;5092954;28;20385;-78
2022/02/26 00:06:33;;;;;;;17.77;4.72;;;2.20;99.90;;;;;;5093232;28;20107;-78
2022/02/26 00:08:59;;;;;;;19.60;5.70;;;2.10;99.90;;;;;;5093112;28;20472;-78
2022/02/26 00:11:25;;;;;;;21.98;5.63;;;2.10;99.90;;;;;;5094242;28;20387;-77
2022/02/26 00:13:50;;;;;;;17.55;4.95;;;2.10;99.90;;;;;;5096437;28;20040;-77
2022/02/26 00:16:16;;;;;;;22.60;4.35;;;2.10;99.90;;;;;;5094262;28;20024;-78
2022/02/26 00:18:42;;;;;;;13.70;4.00;;;2.10;99.90;;;;;;5091488;28;20028;-77
2022/02/26 00:21:08;;;;;;;23.83;4.40;;;2.00;99.90;;;;;;5092847;28;20023;-78
2022/02/26 00:23:33;;;;;;;19.08;5.63;;;2.00;99.90;;;;;;5092809;28;20702;-77
2022/02/26 00:25:59;;;;;;;19.55;4.60;;;2.00;99.90;;;;;;5098266;28;20111;-78
2022/02/26 00:28:24;;;;;;;12.43;4.25;;;2.00;99.90;;;;;;5097499;28;20043;-77
2022/02/26 00:30:50;;;;;;;8.75;3.63;;;2.00;99.90;;;;;;5092793;28;20035;-77
2022/02/26 00:33:16;;;;;;;21.42;4.60;;;2.00;99.90;;;;;;5093171;28;20106;-77
2022/02/26 00:35:42;;;;;;;24.77;4.88;;;2.00;99.90;;;;;;5092750;28;20112;-78
2022/02/26 00:38:08;;;;;;;15.23;4.18;;;2.10;99.90;;;;;;5092787;28;20478;-78
2022/02/26 00:40:34;;;;;;;23.80;5.72;;;2.20;99.90;;;;;;5092797;28;20024;-77
2022/02/26 00:43:00;;;;;;;18.77;3.72;;;2.20;99.90;;;;;;5092075;28;20024;-76
2022/02/26 00:45:25;;;;;;;15.10;3.42;;;2.20;99.90;;;;;;5091841;28;20119;-77
2022/02/26 00:47:51;;;;;;;23.00;5.85;;;2.20;99.90;;;;;;5092391;28;20052;-78
2022/02/26 00:50:17;;;;;;;18.17;3.42;;;2.30;99.90;;;;;;5093081;28;20027;-78
2022/02/26 00:52:43;;;;;;;20.85;4.10;;;2.20;99.90;;;;;;5092199;28;20414;-77
2022/02/26 00:55:09;;;;;;;14.02;3.90;;;2.30;99.90;;;;;;5093340;28;20099;-77
2022/02/26 00:57:35;;;;;;;26.75;7.88;;;2.30;99.90;;;;;;5092748;28;20024;-77
2022/02/26 01:00:03;;;;;;;19.98;3.55;;;2.30;99.90;;;;;;5091738;28;20039;-78
2022/02/26 01:02:29;;;;;;;17.73;3.75;;;2.30;99.90;;;;;;5094533;28;20123;-78
2022/02/26 01:04:54;;;;;;;25.17;4.50;;;2.30;99.90;;;;;;5095611;28;20115;-78
2022/02/26 01:07:20;;;;;;;21.23;4.35;;;2.20;99.90;;;;;;5096146;28;20020;-78
2022/02/26 01:09:46;;;;;;;13.23;3.88;;;2.10;99.90;;;;;;5096333;28;20028;-77
2022/02/26 01:12:12;;;;;;;5.95;2.78;;;2.10;99.90;;;;;;5095946;28;20021;-77
2022/02/26 01:14:38;;;;;;;27.05;4.00;;;2.00;99.90;;;;;;5096335;28;20031;-76
2022/02/26 01:17:06;;;;;;;18.15;4.65;;;1.90;99.90;;;;;;5096121;28;20039;-77
2022/02/26 01:19:32;;;;;;;16.55;4.00;;;1.80;99.90;;;;;;5096293;28;20059;-77
2022/02/26 01:21:57;;;;;;;27.58;5.68;;;1.80;99.90;;;;;;5096526;28;20079;-76
2022/02/26 01:24:23;;;;;;;23.95;4.80;;;1.80;99.90;;;;;;5096434;28;20119;-78
2022/02/26 01:26:50;;;;;;;16.60;4.53;;;1.80;99.90;;;;;;5096090;28;20035;-77
2022/02/26 01:29:15;;;;;;;21.45;5.70;;;1.90;99.90;;;;;;5096753;28;20028;-78
2022/02/26 01:31:41;;;;;;;18.30;3.50;;;1.90;99.90;;;;;;5096383;28;20485;-78
2022/02/26 01:34:07;;;;;;;20.52;3.90;;;1.90;99.90;;;;;;5095580;28;20054;-78
2022/02/26 01:36:33;;;;;;;14.95;3.92;;;1.90;99.90;;;;;;5096646;28;20107;-77
2022/02/26 01:39:02;;;;;;;17.65;4.95;;;1.90;99.90;;;;;;5095816;28;20028;-77
2022/02/26 01:41:28;;;;;;;19.60;3.85;;;1.90;99.90;;;;;;5096942;28;20028;-78
2022/02/26 01:43:58;;;;;;;18.55;3.22;;;1.80;99.90;;;;;;5095821;28;20448;-77
2022/02/26 01:46:23;;;;;;;14.07;4.17;;;1.80;99.90;;;;;;5095783;28;20020;-78
2022/02/26 01:48:50;;;;;;;15.30;4.22;;;1.80;99.90;;;;;;5094748;28;20072;-77
2022/02/26 01:51:16;;;;;;;22.77;4.50;;;1.70;99.90;;;;;;5094963;28;20387;-78
2022/02/26 01:53:41;;;;;;;21.27;3.63;;;1.70;99.90;;;;;;5094954;28;20028;-78
2022/02/26 01:56:08;;;;;;;30.30;5.55;;;1.70;99.90;;;;;;5095045;28;20016;-78
2022/02/26 01:58:34;;;;;;;14.00;3.08;;;1.60;99.90;;;;;;5094819;28;20027;-78
2022/02/26 02:01:00;;;;;;;19.05;4.25;;;1.60;99.90;;;;;;5094116;28;20024;-78
2022/02/26 02:03:26;;;;;;;25.63;5.90;;;1.60;99.90;;;;;;5094547;28;20123;-78
2022/02/26 02:05:54;;;;;;;16.63;3.85;;;1.60;99.90;;;;;;5094887;28;20057;-78
2022/02/26 02:08:20;;;;;;;18.08;4.55;;;1.60;99.90;;;;;;5094262;28;20028;-78
2022/02/26 02:10:49;;;;;;;25.13;4.88;;;1.60;99.90;;;;;;5094267;28;20356;-77
2022/02/26 02:13:15;;;;;;;14.52;4.20;;;1.50;99.90;;;;;;5094380;28;20044;-78
2022/02/26 02:15:42;;;;;;;11.15;4.45;;;1.50;99.90;;;;;;5094038;28;20103;-78
2022/02/26 02:18:09;;;;;;;14.75;4.32;;;1.50;99.90;;;;;;5095076;28;20390;-77
2022/02/26 02:20:36;;;;;;;17.75;4.45;;;1.50;99.90;;;;;;5095109;28;20024;-77
2022/02/26 02:23:02;;;;;;;19.55;5.35;;;1.40;99.90;;;;;;5076618;28;20031;-75
2022/02/26 02:25:29;;;;;;;16.08;4.57;;;1.40;99.90;;;;;;5095379;28;20066;-76
2022/02/26 02:27:56;;;;;;;13.38;3.40;;;1.30;99.90;;;;;;5095631;28;20031;-78
2022/02/26 02:30:23;;;;;;;20.48;6.30;;;1.40;99.90;;;;;;5094655;28;20024;-76
2022/02/26 02:32:49;;;;;;;19.50;5.20;;;1.40;99.90;;;;;;5094964;28;20028;-77
2022/02/26 02:35:39;;;;;;;13.93;4.60;;;1.30;99.90;;;;;;5084621;28;20027;-76
2022/02/26 02:38:10;;;;;;;16.15;3.97;;;1.40;99.90;;;;;;5074854;28;20032;-78
2022/02/26 02:40:37;;;;;;;25.88;4.97;;;1.30;99.90;;;;;;5074987;28;20054;-77
2022/02/26 02:43:05;;;;;;;27.95;4.57;;;1.40;99.90;;;;;;5074212;28;20106;-77
2022/02/26 02:45:31;;;;;;;18.40;4.40;;;1.40;99.90;;;;;;5074554;28;20036;-77
2022/02/26 02:47:57;;;;;;;21.60;5.13;;;1.40;99.90;;;;;;5074286;28;20029;-77
2022/02/26 02:50:22;;;;;;;18.05;4.30;;;1.40;99.90;;;;;;5074178;28;20472;-77
2022/02/26 02:52:48;;;;;;;16.27;4.20;;;1.30;99.90;;;;;;5073914;28;20020;-78
2022/02/26 02:55:15;;;;;;;18.88;4.47;;;1.30;99.90;;;;;;5074501;28;20443;-77
2022/02/26 02:57:42;;;;;;;25.30;6.88;;;1.30;99.90;;;;;;5073712;28;20383;-77
2022/02/26 03:00:09;;;;;;;15.73;4.03;;;1.20;99.90;;;;;;5074646;28;20111;-77
2022/02/26 03:02:34;;;;;;;16.80;3.92;;;1.30;99.90;;;;;;5074064;28;20087;-77
2022/02/26 03:05:00;;;;;;;12.18;3.70;;;1.30;99.90;;;;;;5073547;28;20056;-76
2022/02/26 03:07:26;;;;;;;20.70;4.32;;;1.30;99.90;;;;;;5073686;28;20048;-77
2022/02/26 03:09:51;;;;;;;25.80;6.68;;;1.30;99.90;;;;;;5073011;28;20152;-77
2022/02/26 03:12:17;;;;;;;14.25;3.72;;;1.30;99.90;;;;;;5073604;28;20024;-76
2022/02/26 03:14:43;;;;;;;15.48;4.03;;;1.30;99.90;;;;;;5074099;28;20107;-78
2022/02/26 03:17:10;;;;;;;21.50;4.53;;;1.40;99.90;;;;;;5074273;28;20497;-76
2022/02/26 03:19:35;;;;;;;20.23;4.95;;;1.40;99.90;;;;;;5072935;28;20036;-77
2022/02/26 03:22:01;;;;;;;23.40;5.05;;;1.50;99.90;;;;;;5073861;28;20024;-78
2022/02/26 03:24:26;;;;;;;22.92;5.05;;;1.60;99.90;;;;;;5072744;28;20047;-77
2022/02/26 03:26:56;;;;;;;20.13;5.18;;;1.70;99.90;;;;;;5073202;28;20027;-78
2022/02/26 03:29:23;;;;;;;25.05;4.82;;;1.90;99.90;;;;;;5073595;28;20389;-75
2022/02/26 03:31:49;;;;;;;16.75;3.88;;;1.90;99.90;;;;;;5072906;28;20024;-77
2022/02/26 03:34:14;;;;;;;26.30;3.72;;;1.80;99.90;;;;;;5073323;28;20032;-77
2022/02/26 03:36:40;;;;;;;14.13;4.22;;;1.80;99.90;;;;;;5072816;28;20460;-78
2022/02/26 03:39:05;;;;;;;14.88;4.38;;;1.70;99.90;;;;;;5072971;28;20467;-78
2022/02/26 03:41:31;;;;;;;17.63;4.47;;;1.60;99.90;;;;;;5072740;28;20025;-76
2022/02/26 03:43:57;;;;;;;18.83;4.35;;;1.50;99.90;;;;;;5073198;28;20584;-78
2022/02/26 03:46:23;;;;;;;16.35;4.15;;;1.50;99.90;;;;;;5072942;28;20047;-77
2022/02/26 03:48:52;;;;;;;14.02;3.42;;;1.40;99.90;;;;;;5071842;28;20085;-77
2022/02/26 03:51:18;;;;;;;15.85;3.80;;;1.40;99.90;;;;;;5072917;28;20024;-77
2022/02/26 03:53:43;;;;;;;14.95;3.13;;;1.40;99.90;;;;;;5071598;28;20533;-77
2022/02/26 03:56:09;;;;;;;17.88;4.15;;;1.30;99.90;;;;;;5072588;28;20036;-77
2022/02/26 03:58:34;;;;;;;13.25;4.00;;;1.40;99.90;;;;;;5072620;28;20092;-78
2022/02/26 04:01:00;;;;;;;14.25;4.53;;;1.40;99.90;;;;;;5072226;28;20025;-77
2022/02/26 04:03:25;;;;;;;23.30;4.40;;;1.40;99.90;;;;;;5072366;28;20044;-77
2022/02/26 04:05:51;;;;;;;15.57;4.30;;;1.50;99.90;;;;;;5071990;28;20039;-78
2022/02/26 04:08:17;;;;;;;20.73;4.57;;;1.50;99.90;;;;;;5072018;28;20384;-78
2022/02/26 04:10:43;;;;;;;10.77;3.25;;;1.50;99.90;;;;;;5072627;28;20028;-77
2022/02/26 04:13:08;;;;;;;19.92;3.92;;;1.50;99.90;;;;;;5071946;28;20025;-77
2022/02/26 04:15:34;;;;;;;14.80;5.05;;;1.50;99.90;;;;;;5072459;28;20031;-79
2022/02/26 04:17:59;;;;;;;11.52;4.13;;;1.50;99.90;;;;;;5072422;28;20070;-77
2022/02/26 04:20:25;;;;;;;14.98;3.78;;;1.50;99.90;;;;;;5072203;28;20052;-78
2022/02/26 04:22:50;;;;;;;20.60;6.65;;;1.40;99.90;;;;;;5071901;28;20028;-77
2022/02/26 04:25:16;;;;;;;20.30;5.72;;;1.40;99.90;;;;;;5072974;28;20032;-78
2022/02/26 04:27:42;;;;;;;18.80;4.88;;;1.50;99.90;;;;;;5072511;28;20090;-77
2022/02/26 04:30:09;;;;;;;14.48;4.40;;;1.50;99.90;;;;;;5071745;28;20084;-77
2022/02/26 04:32:36;;;;;;;19.65;4.22;;;1.50;99.90;;;;;;5072511;28;20082;-77
2022/02/26 04:35:02;;;;;;;12.73;4.85;;;1.40;99.90;;;;;;5071631;28;20392;-78
2022/02/26 04:37:28;;;;;;;16.35;4.32;;;1.40;99.90;;;;;;5075019;28;20027;-76
2022/02/26 04:39:53;;;;;;;9.98;4.85;;;1.40;99.90;;;;;;5076181;28;20020;-77
2022/02/26 04:42:19;;;;;;;15.88;5.65;;;1.40;99.90;;;;;;5076473;28;20051;-76
2022/02/26 04:44:44;;;;;;;17.35;5.25;;;1.30;99.90;;;;;;5076227;28;20515;-78
2022/02/26 04:47:11;;;;;;;21.00;5.70;;;1.30;99.90;;;;;;5076677;28;20102;-77
2022/02/26 04:49:37;;;;;;;12.45;5.70;;;1.20;99.90;;;;;;5076294;28;20494;-78
2022/02/26 04:52:03;;;;;;;19.13;6.80;;;1.20;99.90;;;;;;5075951;28;20025;-78
2022/02/26 04:54:28;;;;;;;15.25;5.68;;;1.20;99.90;;;;;;5076699;28;20025;-80
2022/02/26 04:56:54;;;;;;;20.13;6.32;;;1.20;99.90;;;;;;5075594;28;20056;-79
2022/02/26 04:59:19;;;;;;;10.90;4.90;;;1.10;99.90;;;;;;5076791;28;20028;-78
2022/02/26 05:01:48;;;;;;;12.07;5.30;;;1.10;99.90;;;;;;5075631;28;20017;-78
2022/02/26 05:04:13;;;;;;;9.05;4.80;;;1.00;99.90;;;;;;5075671;28;20033;-77
2022/02/26 05:06:39;;;;;;;11.43;5.05;;;1.00;99.90;;;;;;5076108;28;20066;-79
2022/02/26 05:09:04;;;;;;;11.00;4.57;;;1.00;99.90;;;;;;5076000;28;20024;-78
2022/02/26 05:11:32;;;;;;;16.08;5.00;;;0.90;99.90;;;;;;5076311;28;20377;-79
2022/02/26 05:13:58;;;;;;;10.02;4.35;;;0.90;99.90;;;;;;5075837;28;20021;-78
2022/02/26 05:16:24;;;;;;;14.93;4.45;;;0.90;99.90;;;;;;5076132;28;20516;-78
2022/02/26 05:18:49;;;;;;;14.85;4.78;;;0.80;99.90;;;;;;5075625;28;20090;-79
2022/02/26 05:21:17;;;;;;;8.85;3.63;;;0.80;99.90;;;;;;5076465;28;20021;-77
2022/02/26 05:23:43;;;;;;;8.50;4.40;;;0.80;99.90;;;;;;5076123;28;20051;-79
2022/02/26 05:26:13;;;;;;;13.75;3.85;;;0.80;99.90;;;;;;5075918;28;20373;-78
2022/02/26 05:28:39;;;;;;;9.38;4.03;;;0.80;99.90;;;;;;5076118;28;20024;-78
2022/02/26 05:31:05;;;;;;;6.22;3.70;;;0.80;99.90;;;;;;5075941;28;20028;-79
2022/02/26 05:33:31;;;;;;;13.27;4.30;;;0.70;99.90;;;;;;5074969;28;20043;-80
2022/02/26 05:35:57;;;;;;;6.95;3.45;;;0.70;99.90;;;;;;5075820;28;20027;-79
2022/02/26 05:38:23;;;;;;;8.55;2.95;;;0.70;99.90;;;;;;5075657;28;20532;-78
2022/02/26 05:40:48;;;;;;;19.63;3.80;;;0.60;99.90;;;;;;5075259;28;20380;-77
2022/02/26 05:43:14;;;;;;;5.28;3.58;;;0.70;99.90;;;;;;5075912;28;20024;-78
2022/02/26 05:45:40;;;;;;;6.75;3.97;;;0.60;99.90;;;;;;5075482;28;20028;-79
2022/02/26 05:48:06;;;;;;;11.63;4.10;;;0.60;99.90;;;;;;5073945;28;20487;-79
2022/02/26 05:50:31;;;;;;;13.55;5.97;;;0.60;99.90;;;;;;5074969;28;20036;-79
2022/02/26 05:52:57;;;;;;;20.63;5.53;;;0.60;99.90;;;;;;5074904;28;20447;-79
2022/02/26 05:55:23;;;;;;;10.93;5.03;;;0.60;99.90;;;;;;5074416;28;20046;-78
2022/02/26 05:57:48;;;;;;;7.03;5.30;;;0.60;99.90;;;;;;5074913;28;20020;-78
2022/02/26 06:00:14;;;;;;;27.95;5.15;;;0.60;99.90;;;;;;5074950;28;20025;-79
2022/02/26 06:02:40;;;;;;;10.70;5.32;;;0.60;99.90;;;;;;5074493;28;20053;-78
2022/02/26 06:05:06;;;;;;;7.65;5.45;;;0.60;99.90;;;;;;5074477;28;20043;-79
2022/02/26 06:07:31;;;;;;;115.25;7.55;;;0.60;99.90;;;;;;5074482;28;20392;-79
2022/02/26 06:09:57;;;;;;;12.95;4.70;;;0.60;99.90;;;;;;5074573;28;20039;-79
2022/02/26 06:12:23;;;;;;;49.90;6.50;;;0.50;99.90;;;;;;5074701;28;20016;-78
2022/02/26 06:14:49;;;;;;;36.03;5.97;;;0.60;99.90;;;;;;5073903;28;20039;-79
2022/02/26 06:17:14;;;;;;;15.70;5.07;;;0.50;99.90;;;;;;5074389;28;20025;-78
2022/02/26 06:19:40;;;;;;;10.63;5.50;;;0.50;99.90;;;;;;5073734;28;20070;-80
2022/02/26 06:22:05;;;;;;;12.63;5.18;;;0.50;99.90;;;;;;5073705;28;20024;-81
2022/02/26 06:24:31;;;;;;;23.40;5.72;;;0.50;99.90;;;;;;5074205;28;20094;-80
2022/02/26 06:26:56;;;;;;;10.98;5.57;;;0.50;99.90;;;;;;5074003;28;20031;-79
2022/02/26 06:29:22;;;;;;;12.05;6.22;;;0.50;99.90;;;;;;5073660;28;20025;-79
2022/02/26 06:31:48;;;;;;;21.98;7.75;;;0.60;99.90;;;;;;5074011;28;20032;-80
2022/02/26 06:34:13;;;;;;;20.90;7.70;;;0.60;99.90;;;;;;5074797;28;20536;-80
2022/02/26 06:36:39;;;;;;;11.75;6.82;;;0.70;99.90;;;;;;5074192;28;20423;-80
2022/02/26 06:39:05;;;;;;;25.33;8.02;;;0.70;99.90;;;;;;5075109;28;20380;-80
2022/02/26 06:41:31;;;;;;;12.82;7.80;;;0.80;99.90;;;;;;5074554;28;20021;-79
2022/02/26 06:43:57;;;;;;;36.90;7.47;;;0.80;99.90;;;;;;5073716;28;20217;-80
2022/02/26 06:46:23;;;;;;;10.90;6.22;;;0.90;99.90;;;;;;5073290;28;20020;-80
2022/02/26 06:48:48;;;;;;;25.08;6.50;;;0.90;99.90;;;;;;5084755;28;20036;-80
2022/02/26 06:51:14;;;;;;;29.13;5.55;;;0.90;99.90;;;;;;5090501;28;20026;-80
2022/02/26 06:53:40;;;;;;;32.05;6.03;;;0.80;99.90;;;;;;5090746;28;20043;-79
2022/02/26 06:56:06;;;;;;;31.55;6.50;;;0.90;99.90;;;;;;5093223;28;20020;-80
2022/02/26 06:58:32;;;;;;;9.93;5.22;;;0.90;99.90;;;;;;5092130;28;20023;-79
2022/02/26 07:00:59;;;;;;;9.75;5.00;;;0.90;99.90;;;;;;5092140;28;20032;-79
2022/02/26 07:03:25;;;;;;;9.82;4.95;;;1.00;99.90;;;;;;5088572;28;20052;-77
2022/02/26 07:05:50;;;;;;;22.15;5.70;;;1.00;99.90;;;;;;5093120;28;20036;-80
2022/02/26 07:08:16;;;;;;;12.38;6.07;;;1.00;99.90;;;;;;5090528;28;20345;-78
2022/02/26 07:10:41;;;;;;;34.90;7.40;;;1.00;99.90;;;;;;5092139;28;20024;-79
2022/02/26 07:13:07;;;;;;;32.25;7.93;;;1.00;99.90;;;;;;5090604;28;20020;-79
2022/02/26 07:15:33;;;;;;;23.30;6.85;;;1.00;99.90;;;;;;5090545;28;20012;-77
2022/02/26 07:17:58;;;;;;;42.80;7.53;;;1.10;99.90;;;;;;5092164;28;20031;-78
2022/02/26 07:20:24;;;;;;;78.22;9.25;;;1.10;99.90;;;;;;5092840;28;20024;-81
2022/02/26 07:22:49;;;;;;;7.40;6.47;;;1.10;99.90;;;;;;5091602;28;20042;-80
2022/02/26 07:25:15;;;;;;;35.05;7.95;;;1.10;99.90;;;;;;5091471;28;20483;-79
2022/02/26 07:27:40;;;;;;;10.63;6.80;;;1.10;99.90;;;;;;5092780;28;20024;-78
2022/02/26 07:30:07;;;;;;;10.32;7.90;;;1.10;99.90;;;;;;5092521;28;20028;-80
2022/02/26 07:32:33;;;;;;;8.43;7.32;;;1.10;99.90;;;;;;5073845;28;20058;-79
2022/02/26 07:34:59;;;;;;;19.25;8.25;;;1.20;99.90;;;;;;5075759;28;20028;-79
2022/02/26 07:37:25;;;;;;;11.35;8.85;;;1.20;99.90;;;;;;5078453;28;20050;-80
2022/02/26 07:39:51;;;;;;;9.55;8.55;;;1.30;99.90;;;;;;5077894;28;20431;-79
2022/02/26 07:42:16;;;;;;;22.95;8.80;;;1.30;99.90;;;;;;5077922;28;20030;-79
2022/02/26 07:44:42;;;;;;;15.60;9.10;;;1.30;99.90;;;;;;5077658;28;20032;-80
2022/02/26 07:47:07;;;;;;;11.63;9.05;;;1.30;99.90;;;;;;5071885;28;20466;-79
2022/02/26 07:49:33;;;;;;;15.82;9.82;;;1.40;99.90;;;;;;5078193;28;20021;-79
2022/02/26 07:51:59;;;;;;;15.50;9.93;;;1.50;99.90;;;;;;5072087;28;20020;-79
2022/02/26 07:54:24;;;;;;;12.80;10.07;;;1.50;99.90;;;;;;5072437;28;20024;-78
2022/02/26 07:56:50;;;;;;;16.35;11.57;;;1.60;99.90;;;;;;5075641;28;20073;-78
2022/02/26 07:59:15;;;;;;;15.88;10.00;;;1.60;99.90;;;;;;5073033;28;20246;-79
2022/02/26 08:01:41;;;;;;;18.42;12.05;;;1.70;99.90;;;;;;5080837;28;20062;-79
2022/02/26 08:04:15;;;;;;;19.23;12.18;;;1.80;99.90;;;;;;5087205;28;20036;-78
2022/02/26 08:06:41;;;;;;;16.58;11.90;;;1.80;99.90;;;;;;5088858;28;20107;-77
2022/02/26 08:09:07;;;;;;;22.58;11.25;;;1.90;99.90;;;;;;5073861;28;20447;-79
2022/02/26 08:11:39;;;;;;;26.10;12.90;;;2.00;99.90;;;;;;5076269;28;20021;-81
2022/02/26 08:14:04;;;;;;;22.77;13.65;;;2.00;99.90;;;;;;5074179;28;20102;-80
2022/02/26 08:16:30;;;;;;;24.35;14.25;;;2.10;99.90;;;;;;5075032;28;20016;-80
2022/02/26 08:18:55;;;;;;;27.88;14.10;;;2.20;99.90;;;;;;5075237;28;20024;-81
2022/02/26 08:21:21;;;;;;;18.55;13.30;;;2.20;99.90;;;;;;5074848;28;20047;-81
2022/02/26 08:23:48;;;;;;;30.77;15.27;;;2.30;99.90;;;;;;5077817;28;20032;-82
2022/02/26 08:26:18;;;;;;;25.08;14.95;;;2.40;99.90;;;;;;5075528;28;20020;-81
2022/02/26 08:28:44;;;;;;;28.23;14.27;;;2.40;99.90;;;;;;5075433;28;20019;-82
2022/02/26 08:31:10;;;;;;;28.40;16.40;;;2.50;99.90;;;;;;5081079;28;20035;-81
2022/02/26 08:33:36;;;;;;;38.75;18.27;;;2.50;99.90;;;;;;5076010;28;20020;-81
2022/02/26 08:36:02;;;;;;;30.33;15.95;;;2.60;99.90;;;;;;5083823;28;20363;-81
2022/02/26 08:38:28;;;;;;;31.38;17.02;;;2.70;99.90;;;;;;5075805;28;20017;-81
2022/02/26 08:40:53;;;;;;;30.27;17.98;;;2.70;99.90;;;;;;5074905;28;20482;-79
2022/02/26 08:43:19;;;;;;;37.30;17.27;;;2.80;99.90;;;;;;5071240;28;20070;-78
2022/02/26 08:45:45;;;;;;;24.35;15.57;;;2.80;99.90;;;;;;5072186;28;20075;-78
2022/02/26 08:48:11;;;;;;;40.70;17.77;;;2.90;99.90;;;;;;5070632;28;20055;-80
2022/02/26 08:50:36;;;;;;;33.92;17.33;;;3.00;99.90;;;;;;5082072;28;20043;-79
2022/02/26 08:53:03;;;;;;;32.22;16.52;;;3.00;99.90;;;;;;5073481;28;20025;-78
2022/02/26 08:55:29;;;;;;;39.85;18.52;;;3.10;99.90;;;;;;5072432;28;20017;-79
2022/02/26 08:57:54;;;;;;;30.92;15.32;;;3.20;99.90;;;;;;5072220;28;20029;-77
2022/02/26 09:00:20;;;;;;;29.85;17.85;;;3.20;99.90;;;;;;5077512;28;20016;-77
2022/02/26 09:02:46;;;;;;;34.28;16.58;;;3.30;99.90;;;;;;5090700;28;20048;-76
2022/02/26 09:05:13;;;;;;;30.95;17.95;;;3.30;99.90;;;;;;5092210;28;20044;-77
2022/02/26 09:07:38;;;;;;;30.40;16.17;;;3.40;99.90;;;;;;5092536;28;20042;-76
2022/02/26 09:10:05;;;;;;;29.98;15.82;;;3.50;99.90;;;;;;5092264;28;20499;-75
2022/02/26 09:12:31;;;;;;;27.30;15.27;;;3.60;99.90;;;;;;5061720;28;20048;-77
2022/02/26 09:14:57;;;;;;;30.48;15.88;;;3.60;99.90;;;;;;5084583;28;20048;-76
2022/02/26 09:17:24;;;;;;;35.63;15.65;;;3.70;99.90;;;;;;5079736;28;20020;-76
2022/02/26 09:19:50;;;;;;;29.17;17.13;;;3.80;99.90;;;;;;5079698;28;20427;-76
2022/02/26 09:22:16;;;;;;;34.03;15.85;;;3.90;99.90;;;;;;5079947;28;20506;-77
2022/02/26 09:24:41;;;;;;;39.35;18.02;;;4.00;99.90;;;;;;5085682;28;20033;-78
2022/02/26 09:27:07;;;;;;;31.88;15.30;;;4.10;99.90;;;;;;5092762;28;20078;-79
2022/02/26 09:29:32;;;;;;;32.30;15.80;;;4.20;99.90;;;;;;5096317;28;20024;-76
2022/02/26 09:31:58;;;;;;;29.58;13.30;;;4.30;99.90;;;;;;5095640;28;20375;-78
2022/02/26 09:34:24;;;;;;;33.50;13.82;;;4.40;99.90;;;;;;5096969;28;20032;-80
2022/02/26 09:36:51;;;;;;;35.00;16.60;;;4.50;99.90;;;;;;5096614;28;20455;-78
2022/02/26 09:39:17;;;;;;;28.77;12.77;;;4.60;99.90;;;;;;5096097;28;20034;-80
2022/02/26 09:41:46;;;;;;;31.10;13.57;;;4.70;99.90;;;;;;5095308;28;20028;-81
2022/02/26 09:44:13;;;;;;;24.25;13.85;;;4.70;99.90;;;;;;5096069;28;20059;-79
2022/02/26 09:46:39;;;;;;;32.35;12.55;;;4.80;99.90;;;;;;5095202;28;20020;-81
2022/02/26 09:49:05;;;;;;;31.60;12.68;;;4.90;99.90;;;;;;5096876;28;20119;-81
2022/02/26 09:51:32;;;;;;;28.80;12.57;;;5.00;99.90;;;;;;5096966;28;20066;-81
2022/02/26 09:53:58;;;;;;;30.10;13.18;;;5.10;99.90;;;;;;5097756;28;20537;-80
2022/02/26 09:56:23;;;;;;;36.63;13.43;;;5.20;99.90;;;;;;5098053;28;20024;-76
2022/02/26 09:58:50;;;;;;;33.17;13.40;;;5.30;99.90;;;;;;5096901;28;20407;-80
2022/02/26 10:01:16;;;;;;;30.73;10.30;;;5.40;99.90;;;;;;5094376;28;20032;-81
2022/02/26 10:03:42;;;;;;;30.10;9.55;;;5.60;99.90;;;;;;5091799;28;20045;-81
2022/02/26 10:06:12;;;;;;;25.30;9.18;;;5.60;99.90;;;;;;5093462;28;20020;-82
2022/02/26 10:08:49;;;;;;;28.20;10.73;;;5.60;99.90;;;;;;5098556;28;20020;-79
2022/02/26 10:11:26;;;;;;;35.45;10.50;;;5.70;99.90;;;;;;5092781;28;20060;-81
2022/02/26 10:13:59;;;;;;;26.30;10.30;;;5.80;99.90;;;;;;5084929;28;20475;-81
2022/02/26 10:16:47;;;;;;;32.22;10.48;;;5.80;99.90;;;;;;5083291;28;20009;-81
2022/02/26 10:19:30;;;;;;;23.27;9.27;;;6.00;99.90;;;;;;5085748;28;20068;-81
2022/02/26 10:21:58;;;;;;;21.05;8.80;;;6.00;99.90;;;;;;5076088;28;20024;-81
2022/02/26 10:24:24;;;;;;;26.85;9.02;;;6.10;99.90;;;;;;5076790;28;20040;-80
2022/02/26 10:26:55;;;;;;;26.35;8.90;;;6.20;99.90;;;;;;5076777;28;20027;-81
2022/02/26 10:29:22;;;;;;;34.50;7.95;;;6.30;99.90;;;;;;5079605;28;20114;-82
2022/02/26 10:31:50;;;;;;;20.80;6.50;;;6.30;99.90;;;;;;5089197;28;20180;-79
2022/02/26 10:34:28;;;;;;;21.85;5.88;;;6.40;99.90;;;;;;5080997;28;20101;-82
2022/02/26 10:37:06;;;;;;;18.52;5.57;;;6.40;99.90;;;;;;5093081;28;20051;-80
2022/02/26 10:39:33;;;;;;;16.13;6.07;;;6.50;99.90;;;;;;5078498;28;20038;-81
2022/02/26 10:41:59;;;;;;;17.13;6.75;;;6.50;99.90;;;;;;5077725;28;20040;-81
2022/02/26 10:44:26;;;;;;;17.55;6.07;;;6.60;99.90;;;;;;5074775;28;20059;-81
2022/02/26 10:46:51;;;;;;;19.63;5.32;;;6.70;99.90;;;;;;5076845;28;20077;-82
2022/02/26 10:49:18;;;;;;;11.38;6.13;;;6.70;99.90;;;;;;5074667;28;20103;-80
2022/02/26 10:51:46;;;;;;;16.55;5.05;;;6.80;99.90;;;;;;5074362;28;20020;-79
2022/02/26 10:54:25;;;;;;;15.35;5.35;;;6.90;99.90;;;;;;5073813;28;20062;-78
2022/02/26 10:56:52;;;;;;;41.97;8.77;;;6.90;99.90;;;;;;5075861;28;20081;-78
2022/02/26 10:59:32;;;;;;;21.92;7.32;;;7.00;99.90;;;;;;5074639;28;20495;-78
2022/02/26 11:02:24;;;;;;;25.30;6.88;;;6.90;99.90;;;;;;5074300;28;20058;-77
2022/02/26 11:04:52;;;;;;;18.23;7.15;;;6.90;99.90;;;;;;5073548;28;20047;-78
2022/02/26 11:07:18;;;;;;;19.83;5.75;;;7.00;99.90;;;;;;5074635;28;20047;-78
2022/02/26 11:09:45;;;;;;;19.48;6.38;;;7.20;99.90;;;;;;5073346;28;20469;-78
2022/02/26 11:12:18;;;;;;;16.98;5.50;;;7.30;99.90;;;;;;5073771;28;20161;-77
2022/02/26 11:14:51;;;;;;;13.98;6.32;;;7.30;99.90;;;;;;5073377;28;20025;-79
2022/02/26 11:17:18;;;;;;;14.25;5.45;;;7.30;99.90;;;;;;5073396;28;20052;-78
2022/02/26 11:19:47;;;;;;;15.02;5.03;;;7.40;99.90;;;;;;5073570;28;20043;-79
2022/02/26 11:22:15;;;;;;;20.48;5.20;;;7.40;99.90;;;;;;5073572;28;20020;-79
2022/02/26 11:24:41;;;;;;;12.82;6.05;;;7.40;99.90;;;;;;5075394;28;20058;-79
2022/02/26 11:27:06;;;;;;;15.77;5.32;;;7.50;99.90;;;;;;5073403;28;20020;-78
2022/02/26 11:29:32;;;;;;;14.63;5.68;;;7.60;99.90;;;;;;5073282;28;20034;-78
2022/02/26 11:32:06;;;;;;;13.32;5.50;;;7.70;99.90;;;;;;5072696;28;20027;-77
2022/02/26 11:34:37;;;;;;;13.38;5.53;;;7.70;99.90;;;;;;5083861;28;20383;-78
2022/02/26 11:37:08;;;;;;;15.85;5.88;;;7.70;99.90;;;;;;5075578;28;20017;-79
2022/02/26 11:39:47;;;;;;;17.10;6.00;;;7.80;99.90;;;;;;5073692;28;20112;-80
2022/02/26 11:42:22;;;;;;;13.63;6.60;;;7.80;99.90;;;;;;5073393;28;20135;-80
2022/02/26 11:45:25;;;;;;;15.10;7.57;;;7.80;99.90;;;;;;5072666;28;20515;-80
2022/02/26 11:47:52;;;;;;;18.83;7.60;;;7.90;99.90;;;;;;5020928;28;20028;-80
2022/02/26 11:50:23;;;;;;;16.10;7.18;;;8.00;99.90;;;;;;5087494;28;20024;-79
2022/02/26 11:53:08;;;;;;;16.60;5.60;;;7.90;99.90;;;;;;5071932;28;20027;-80
2022/02/26 11:55:34;;;;;;;18.05;6.32;;;8.10;99.90;;;;;;5073288;28;20468;-78
2022/02/26 11:58:01;;;;;;;10.73;4.47;;;8.20;99.90;;;;;;5056607;28;20020;-80
2022/02/26 12:00:31;;;;;;;13.52;4.95;;;8.20;99.90;;;;;;5082520;28;20025;-79
2022/02/26 12:03:20;;;;;;;12.13;5.63;;;8.20;99.90;;;;;;5095409;28;20450;-79
2022/02/26 12:05:50;;;;;;;17.80;6.53;;;8.30;99.90;;;;;;5114156;28;20028;-77
2022/02/26 12:08:20;;;;;;;20.77;8.63;;;8.20;99.90;;;;;;5112544;28;20032;-77
2022/02/26 12:10:56;;;;;;;15.68;5.40;;;8.30;99.90;;;;;;5104915;28;20503;-77
2022/02/26 12:13:30;;;;;;;18.02;6.10;;;8.40;99.90;;;;;;5085738;28;20055;-79
2022/02/26 12:16:20;;;;;;;19.20;5.43;;;8.50;99.90;;;;;;5092417;28;20479;-80
2022/02/26 12:18:58;;;;;;;17.55;5.32;;;8.50;99.90;;;;;;5088950;28;20031;-80
2022/02/26 12:21:29;;;;;;;13.20;5.63;;;8.60;99.90;;;;;;5091070;28;20071;-80
2022/02/26 12:24:07;;;;;;;15.95;4.85;;;8.60;99.90;;;;;;5086652;28;20173;-79
2022/02/26 12:26:48;;;;;;;13.55;5.13;;;8.80;99.90;;;;;;5090396;28;20023;-78
2022/02/26 12:29:26;;;;;;;18.00;4.15;;;8.80;99.90;;;;;;5092847;28;20035;-80
2022/02/26 12:32:06;;;;;;;14.93;5.35;;;8.90;99.90;;;;;;5093984;28;20024;-79
2022/02/26 12:34:40;;;;;;;9.90;3.70;;;8.90;99.90;;;;;;5093280;28;20384;-80
2022/02/26 12:37:07;;;;;;;12.40;4.20;;;9.00;99.90;;;;;;5094007;28;20024;-80
2022/02/26 12:39:39;;;;;;;14.48;4.30;;;9.10;99.90;;;;;;5093994;28;20024;-80
2022/02/26 12:42:08;;;;;;;15.98;4.15;;;9.20;99.90;;;;;;5093320;28;20024;-79
2022/02/26 12:44:37;;;;;;;19.08;4.20;;;9.20;99.90;;;;;;5094010;28;20475;-80
2022/02/26 12:47:03;;;;;;;9.80;4.43;;;9.20;99.90;;;;;;5093626;28;20031;-80